Time;durP1;ratioP1;P1;durP2;ratioP2;P2;SDS_P1;SDS_P2;PMS_P1;PMS_P2;Temp;Humidity;BMP_temperature;BMP_pressure;BME280_temperature;BME280_humidity;BME280_pressure;Samples;Min_cycle;Max_cycle;Signal;HPM_P1;HPM_P2
2023/03/03 00:01:14;;;;;;;4.15;2.10;;;;;;;3.51;97.51;94671.63;5143995;27;20281;-75
2023/03/03 00:03:41;;;;;;;6.15;2.30;;;;;;;3.47;97.83;94675.94;5145025;27;20201;-76
2023/03/03 00:06:10;;;;;;;1.40;1.20;;;;;;;3.39;98.36;94668.53;5130929;27;20617;-77
2023/03/03 00:08:39;;;;;;;3.95;2.10;;;;;;;3.37;98.86;94664.53;5132024;27;20703;-77
2023/03/03 00:11:06;;;;;;;4.63;1.73;;;;;;;3.36;98.93;94663.72;5143337;27;20201;-77
2023/03/03 00:13:43;;;;;;;4.10;2.03;;;;;;;3.34;99.00;94657.84;5144782;27;20964;-78
2023/03/03 00:16:16;;;;;;;4.38;2.60;;;;;;;3.36;99.09;94663.72;5141946;27;20614;-75
2023/03/03 00:18:45;;;;;;;2.25;1.38;;;;;;;3.38;99.00;94664.25;5138459;27;20197;-78
2023/03/03 00:21:29;;;;;;;3.47;2.15;;;;;;;3.44;98.79;94665.78;5140296;27;20782;-76
2023/03/03 00:24:15;;;;;;;4.68;2.58;;;;;;;3.35;99.09;94662.13;5130728;27;20774;-77
2023/03/03 00:26:44;;;;;;;6.32;2.78;;;;;;;3.40;99.09;94654.06;5144810;27;20185;-76
2023/03/03 00:29:28;;;;;;;6.53;3.20;;;;;;;3.40;98.93;94664.78;5131593;27;20921;-77
2023/03/03 00:32:00;;;;;;;1.67;1.23;;;;;;;3.42;98.84;94662.59;5119810;27;20196;-74
2023/03/03 00:34:29;;;;;;;3.80;2.25;;;;;;;3.45;98.89;94655.88;5148607;27;20199;-75
2023/03/03 00:36:57;;;;;;;3.95;2.15;;;;;;;3.44;98.92;94665.78;5131125;27;20771;-77
2023/03/03 00:39:31;;;;;;;11.45;2.53;;;;;;;3.40;98.71;94656.75;5145189;27;20196;-77
2023/03/03 00:41:58;;;;;;;3.53;2.22;;;;;;;3.43;98.98;94648.13;5140953;27;20268;-77
2023/03/03 00:44:43;;;;;;;4.00;1.88;;;;;;;3.43;99.08;94647.31;5135854;27;20291;-77
2023/03/03 00:47:26;;;;;;;4.88;2.42;;;;;;;3.41;99.11;94642.28;5143846;27;20200;-75
2023/03/03 00:49:53;;;;;;;4.72;2.17;;;;;;;3.41;99.09;94639.59;5138957;27;20192;-74
2023/03/03 00:52:21;;;;;;;4.30;2.42;;;;;;;3.38;98.91;94634.81;5136689;27;20622;-77
2023/03/03 00:54:49;;;;;;;4.00;2.53;;;;;;;3.45;98.94;94632.56;5139366;27;20633;-75
2023/03/03 00:57:16;;;;;;;2.92;2.00;;;;;;;3.43;98.99;94626.69;5137864;27;20205;-76
2023/03/03 00:59:42;;;;;;;4.45;2.85;;;;;;;3.40;99.09;94618.47;5142237;27;20605;-77
2023/03/03 01:02:09;;;;;;;5.07;2.92;;;;;;;3.43;98.74;94616.00;5130529;27;20244;-76
2023/03/03 01:04:36;;;;;;;4.30;2.80;;;;;;;3.38;99.03;94609.91;5139599;27;20200;-76
2023/03/03 01:07:03;;;;;;;4.25;2.67;;;;;;;3.37;99.07;94603.75;5138036;27;20201;-75
2023/03/03 01:09:30;;;;;;;5.63;2.95;;;;;;;3.37;99.43;94614.47;5141492;27;20697;-76
2023/03/03 01:11:58;;;;;;;3.58;2.65;;;;;;;3.39;99.32;94614.19;5132601;27;20671;-78
2023/03/03 01:14:25;;;;;;;3.85;2.67;;;;;;;3.48;99.45;94607.91;5141244;27;20289;-75
2023/03/03 01:16:52;;;;;;;5.00;2.67;;;;;;;3.38;99.29;94615.25;5144139;27;20204;-76
2023/03/03 01:19:18;;;;;;;4.50;1.92;;;;;;;3.39;99.32;94606.94;5140317;27;20212;-76
2023/03/03 01:21:45;;;;;;;2.90;1.70;;;;;;;3.34;99.34;94606.19;5134003;27;20753;-75
2023/03/03 01:24:13;;;;;;;6.40;2.53;;;;;;;3.39;99.36;94608.81;5140362;27;20216;-76
2023/03/03 01:26:40;;;;;;;5.88;3.17;;;;;;;3.39;99.42;94614.97;5133510;27;20743;-76
2023/03/03 01:29:08;;;;;;;1.85;1.33;;;;;;;3.38;99.23;94608.03;5140857;27;20350;-77
2023/03/03 01:31:34;;;;;;;6.28;3.40;;;;;;;3.44;99.39;94606.88;5146926;27;20277;-76
2023/03/03 01:34:01;;;;;;;6.70;3.53;;;;;;;3.56;99.02;94603.81;5129720;27;20213;-76
2023/03/03 01:36:29;;;;;;;4.03;2.20;;;;;;;3.55;98.63;94597.66;5143812;27;20217;-76
2023/03/03 01:38:56;;;;;;;4.25;2.78;;;;;;;3.50;98.56;94605.75;5142170;27;20289;-76
2023/03/03 01:41:23;;;;;;;2.47;1.70;;;;;;;3.57;98.36;94600.84;5136577;27;20243;-74
2023/03/03 01:43:50;;;;;;;4.68;2.80;;;;;;;3.52;98.59;94590.22;5139538;27;20205;-75
2023/03/03 01:46:46;;;;;;;6.75;3.33;;;;;;;3.54;98.67;94593.41;5143736;27;20205;-75
2023/03/03 01:49:16;;;;;;;3.78;2.42;;;;;;;3.56;98.61;94595.78;5139646;27;20200;-77
2023/03/03 01:51:48;;;;;;;2.92;1.70;;;;;;;3.55;98.46;94594.97;5139830;27;20864;-77
2023/03/03 01:54:20;;;;;;;4.10;2.58;;;;;;;3.51;98.71;94595.84;5136787;27;20257;-77
2023/03/03 01:56:47;;;;;;;3.85;2.35;;;;;;;3.50;98.86;94595.06;5139005;27;20246;-76
2023/03/03 01:59:18;;;;;;;4.13;3.28;;;;;;;3.50;99.10;94595.06;5134841;27;20196;-75
2023/03/03 02:01:47;;;;;;;6.13;3.65;;;;;;;3.51;99.36;94595.84;5137709;27;20235;-75
2023/03/03 02:04:14;;;;;;;4.97;2.95;;;;;;;3.44;99.53;94596.16;5129295;27;20984;-75
2023/03/03 02:06:45;;;;;;;3.22;2.42;;;;;;;3.50;99.55;94589.69;5142699;27;20191;-75
2023/03/03 02:09:17;;;;;;;5.07;2.75;;;;;;;3.52;99.49;94592.88;5136072;27;20256;-76
2023/03/03 02:11:45;;;;;;;4.20;2.40;;;;;;;3.44;99.32;94598.84;5149438;27;20249;-76
2023/03/03 02:14:13;;;;;;;3.63;2.13;;;;;;;3.33;99.63;94600.03;5136841;27;20235;-77
2023/03/03 02:16:41;;;;;;;7.35;3.17;;;;;;;3.28;100.00;94594.72;5136424;27;20197;-77
2023/03/03 02:19:17;;;;;;;6.75;3.03;;;;;;;3.28;100.00;94597.41;5141488;27;20204;-77
2023/03/03 02:21:43;;;;;;;3.03;2.33;;;;;;;3.27;100.00;94600.38;5128638;27;20216;-76
2023/03/03 02:24:17;;;;;;;6.85;2.88;;;;;;;3.29;100.00;94599.00;5139099;27;20296;-76
2023/03/03 02:26:46;;;;;;;2.40;1.80;;;;;;;3.29;100.00;94604.34;5135397;27;20208;-76
2023/03/03 02:29:12;;;;;;;3.78;2.28;;;;;;;3.38;100.00;94597.31;5138090;27;20205;-76
2023/03/03 02:31:39;;;;;;;3.30;1.98;;;;;;;3.46;99.79;94602.03;5142434;27;20204;-76
2023/03/03 02:34:06;;;;;;;5.40;2.45;;;;;;;3.46;99.55;94595.88;5132653;27;20193;-77
2023/03/03 02:36:36;;;;;;;3.97;2.30;;;;;;;3.36;100.00;94594.13;5142440;27;20220;-75
2023/03/03 02:39:07;;;;;;;5.13;3.25;;;;;;;3.34;99.68;94595.47;5141626;27;20200;-76
2023/03/03 02:41:36;;;;;;;4.07;2.65;;;;;;;3.32;99.77;94598.44;5135638;27;20276;-76
2023/03/03 02:44:07;;;;;;;4.32;2.50;;;;;;;3.39;99.63;94598.91;5136741;27;20205;-76
2023/03/03 02:46:36;;;;;;;8.43;3.38;;;;;;;3.40;99.51;94597.03;5136501;27;20689;-76
2023/03/03 02:49:04;;;;;;;4.03;2.40;;;;;;;3.41;99.26;94588.72;5136041;27;20205;-76
2023/03/03 02:51:31;;;;;;;5.95;3.13;;;;;;;3.45;99.50;94591.63;5141671;27;20277;-76
2023/03/03 02:53:58;;;;;;;5.25;3.17;;;;;;;3.47;99.32;94584.09;5130996;27;20205;-77
2023/03/03 02:56:25;;;;;;;5.53;2.88;;;;;;;3.54;99.29;94590.72;5141108;27;20744;-76
2023/03/03 02:58:52;;;;;;;4.25;2.55;;;;;;;3.47;99.22;94592.94;5142821;27;20200;-75
2023/03/03 03:01:21;;;;;;;6.05;3.20;;;;;;;3.42;99.33;94592.97;5137516;27;20272;-75
2023/03/03 03:03:48;;;;;;;3.03;1.73;;;;;;;3.33;100.00;94583.19;5147322;27;20619;-75
2023/03/03 03:06:15;;;;;;;4.55;2.00;;;;;;;3.36;100.00;94594.13;5138130;27;20222;-76
2023/03/03 03:08:42;;;;;;;4.45;2.88;;;;;;;3.38;100.00;94591.16;5133368;27;20242;-76
2023/03/03 03:11:08;;;;;;;5.57;3.75;;;;;;;3.27;100.00;94585.13;5128967;28;20197;-76
2023/03/03 03:13:35;;;;;;;4.68;2.67;;;;;;;3.34;100.00;94590.94;5145694;27;20219;-76
2023/03/03 03:16:02;;;;;;;5.30;3.80;;;;;;;3.36;100.00;94583.41;5139420;27;20677;-75
2023/03/03 03:18:30;;;;;;;5.32;2.97;;;;;;;3.22;100.00;94582.47;5145808;27;20237;-77
2023/03/03 03:20:57;;;;;;;10.07;3.78;;;;;;;3.19;100.00;94577.69;5139302;27;21031;-75
2023/03/03 03:23:24;;;;;;;8.05;4.00;;;;;;;3.31;100.00;94579.97;5143050;27;20315;-76
2023/03/03 03:25:50;;;;;;;8.43;3.90;;;;;;;3.33;100.00;94583.97;5138713;27;20200;-76
2023/03/03 03:28:18;;;;;;;4.95;2.80;;;;;;;3.17;100.00;94571.81;5135537;27;20234;-75
2023/03/03 03:30:45;;;;;;;6.32;3.30;;;;;;;3.15;100.00;94584.69;5138832;27;20205;-75
2023/03/03 03:33:12;;;;;;;4.78;3.03;;;;;;;3.15;100.00;94577.44;5143724;27;20897;-75
2023/03/03 03:35:44;;;;;;;11.45;4.07;;;;;;;3.22;100.00;94577.13;5142298;27;20217;-75
2023/03/03 03:38:11;;;;;;;5.18;3.35;;;;;;;3.15;100.00;94576.66;5137019;27;20201;-75
2023/03/03 03:40:38;;;;;;;7.10;2.70;;;;;;;3.15;100.00;94579.31;5142088;27;20204;-75
2023/03/03 03:43:05;;;;;;;7.07;3.50;;;;;;;3.14;100.00;94572.41;5146522;27;20232;-76
2023/03/03 03:45:31;;;;;;;9.13;4.22;;;;;;;3.16;100.00;94567.53;5132372;27;20205;-74
2023/03/03 03:47:58;;;;;;;9.45;4.22;;;;;;;3.12;100.00;94572.69;5146439;27;20958;-76
2023/03/03 03:50:25;;;;;;;5.15;3.45;;;;;;;3.10;100.00;94568.69;5144125;27;20228;-78
2023/03/03 03:52:53;;;;;;;7.45;3.70;;;;;;;3.22;100.00;94563.75;5138723;27;20667;-77
2023/03/03 03:55:21;;;;;;;7.43;3.90;;;;;;;3.28;100.00;94565.28;5152934;27;20200;-76
2023/03/03 03:57:48;;;;;;;3.92;2.40;;;;;;;3.18;100.00;94565.38;5133389;27;20200;-77
2023/03/03 04:00:15;;;;;;;13.32;4.43;;;;;;;3.10;100.00;94568.69;5144448;27;20709;-77
2023/03/03 04:02:42;;;;;;;7.25;3.88;;;;;;;3.13;100.00;94562.78;5139128;27;20224;-77
2023/03/03 04:05:10;;;;;;;9.45;4.38;;;;;;;3.13;100.00;94552.06;5139426;27;20208;-77
2023/03/03 04:07:36;;;;;;;5.55;2.90;;;;;;;3.14;100.00;94559.03;5132071;27;20201;-77
2023/03/03 04:10:05;;;;;;;6.82;4.10;;;;;;;3.08;100.00;94562.81;5131892;27;20262;-77
2023/03/03 04:12:37;;;;;;;6.53;3.38;;;;;;;3.01;100.00;94554.31;5152696;27;20261;-76
2023/03/03 04:15:05;;;;;;;8.18;3.78;;;;;;;3.15;100.00;94552.56;5139181;27;20717;-78
2023/03/03 04:17:32;;;;;;;5.63;3.78;;;;;;;3.18;100.00;94555.47;5140218;27;20200;-77
2023/03/03 04:19:58;;;;;;;5.25;3.38;;;;;;;3.22;100.00;94564.53;5152146;27;20200;-77
2023/03/03 04:22:26;;;;;;;9.93;3.40;;;;;;;3.27;100.00;94563.72;5139813;27;20244;-77
2023/03/03 04:24:52;;;;;;;4.95;2.85;;;;;;;3.34;100.00;94558.81;5137589;27;20655;-76
2023/03/03 04:27:21;;;;;;;7.40;3.30;;;;;;;3.36;100.00;94559.31;5141042;27;20268;-78
2023/03/03 04:29:47;;;;;;;9.85;4.72;;;;;;;3.35;100.00;94555.03;5135681;27;20201;-77
2023/03/03 04:32:15;;;;;;;8.02;3.92;;;;;;;3.32;100.00;94555.59;5141032;27;20705;-77
2023/03/03 04:34:42;;;;;;;11.85;5.13;;;;;;;3.27;100.00;94557.56;5145790;27;20553;-76
2023/03/03 04:37:08;;;;;;;16.70;7.13;;;;;;;3.17;100.00;94553.09;5130953;27;20755;-77
2023/03/03 04:39:35;;;;;;;16.88;5.38;;;;;;;3.20;100.00;94555.19;5144951;27;20262;-77
2023/03/03 04:42:02;;;;;;;13.93;6.28;;;;;;;3.28;100.00;94554.56;5131158;27;20228;-78
2023/03/03 04:44:30;;;;;;;6.88;3.55;;;;;;;3.36;100.00;94551.28;5144416;27;20193;-77
2023/03/03 04:46:57;;;;;;;15.55;6.35;;;;;;;3.25;100.00;94554.34;5141474;27;20232;-78
2023/03/03 04:49:24;;;;;;;14.13;6.65;;;;;;;3.18;100.00;94549.31;5151097;27;20192;-79
2023/03/03 04:51:50;;;;;;;12.23;5.53;;;;;;;3.25;100.00;94549.00;5141283;27;20281;-79
2023/03/03 04:54:17;;;;;;;6.53;3.58;;;;;;;3.30;100.00;94552.41;5131324;27;20568;-77
2023/03/03 04:56:44;;;;;;;9.15;4.28;;;;;;;3.29;100.00;94555.38;5131214;27;20197;-77
2023/03/03 04:59:11;;;;;;;12.90;6.32;;;;;;;3.28;100.00;94559.94;5144584;27;20312;-78
2023/03/03 05:01:39;;;;;;;16.67;6.13;;;;;;;3.26;100.00;94561.31;5133239;27;20250;-76
2023/03/03 05:04:06;;;;;;;12.40;5.70;;;;;;;3.37;100.00;94558.25;5129903;27;20655;-77
2023/03/03 05:06:33;;;;;;;8.18;4.55;;;;;;;3.17;100.00;94563.78;5142016;27;20599;-77
2023/03/03 05:09:00;;;;;;;8.05;4.50;;;;;;;3.15;100.00;94555.25;5137857;27;20291;-78
2023/03/03 05:11:27;;;;;;;12.73;5.40;;;;;;;3.13;100.00;94557.44;5139753;27;20201;-77
2023/03/03 05:13:54;;;;;;;9.95;5.28;;;;;;;3.27;100.00;94562.91;5143915;27;20301;-78
2023/03/03 05:16:20;;;;;;;9.23;5.32;;;;;;;3.37;100.00;94562.78;5142635;27;20189;-78
2023/03/03 05:18:49;;;;;;;15.50;5.80;;;;;;;3.33;100.00;94557.22;5135832;27;20222;-79
2023/03/03 05:21:15;;;;;;;10.05;5.00;;;;;;;3.32;100.00;94560.16;5138809;27;20659;-78
2023/03/03 05:23:42;;;;;;;10.98;5.50;;;;;;;3.33;100.00;94562.56;5132355;27;20239;-85
2023/03/03 05:26:09;;;;;;;10.95;4.88;;;;;;;3.33;100.00;94573.28;5130751;27;20216;-81
2023/03/03 05:28:36;;;;;;;8.98;4.75;;;;;;;3.33;100.00;94567.91;5130574;27;20201;-76
2023/03/03 05:31:02;;;;;;;8.98;4.85;;;;;;;3.39;100.00;94566.78;5143558;27;20745;-81
2023/03/03 05:33:29;;;;;;;13.38;6.40;;;;;;;3.27;100.00;94574.41;5147899;27;20237;-79
2023/03/03 05:35:58;;;;;;;9.75;5.95;;;;;;;3.37;100.00;94568.94;5137509;27;20216;-78
2023/03/03 05:38:25;;;;;;;9.60;4.80;;;;;;;3.45;100.00;94573.66;5129886;27;20211;-75
2023/03/03 05:40:53;;;;;;;6.18;3.67;;;;;;;3.51;100.00;94569.88;5144151;27;20617;-75
2023/03/03 05:43:20;;;;;;;10.05;4.47;;;;;;;3.53;100.00;94581.09;5150580;27;20236;-78
2023/03/03 05:45:47;;;;;;;7.05;3.70;;;;;;;3.30;100.00;94567.66;5137384;27;20201;-79
2023/03/03 05:48:14;;;;;;;4.75;2.47;;;;;;;3.44;100.00;94580.09;5143811;27;20254;-77
2023/03/03 05:50:40;;;;;;;6.03;3.72;;;;;;;3.43;100.00;94578.50;5129976;27;20781;-79
2023/03/03 05:53:08;;;;;;;8.20;3.55;;;;;;;3.39;100.00;94577.50;5130122;27;20250;-77
2023/03/03 05:55:35;;;;;;;8.60;4.45;;;;;;;3.19;100.00;94581.16;5143656;27;20620;-79
2023/03/03 05:58:02;;;;;;;9.05;4.18;;;;;;;3.22;100.00;94571.78;5143759;27;20245;-76
2023/03/03 06:00:29;;;;;;;16.17;6.53;;;;;;;3.37;100.00;94573.50;5143360;27;20199;-78
2023/03/03 06:02:55;;;;;;;12.10;5.47;;;;;;;3.32;100.00;94587.72;5136810;27;20280;-79
2023/03/03 06:05:22;;;;;;;10.77;4.18;;;;;;;3.32;100.00;94581.56;5136882;27;20265;-78
2023/03/03 06:07:49;;;;;;;14.32;6.53;;;;;;;3.38;100.00;94583.94;5150970;27;20212;-79
2023/03/03 06:10:17;;;;;;;11.40;4.50;;;;;;;3.46;100.00;94571.78;5136715;27;20208;-78
2023/03/03 06:12:44;;;;;;;11.98;6.35;;;;;;;3.48;100.00;94580.34;5137114;27;20204;-77
2023/03/03 06:15:11;;;;;;;7.47;4.05;;;;;;;3.45;100.00;94571.00;5132405;27;20770;-77
2023/03/03 06:17:38;;;;;;;10.55;5.25;;;;;;;3.67;100.00;94583.09;5142285;27;20659;-77
2023/03/03 06:20:06;;;;;;;9.50;6.03;;;;;;;3.61;100.00;94589.56;5144248;27;20844;-77
2023/03/03 06:22:33;;;;;;;11.48;5.60;;;;;;;3.49;100.00;94587.31;5141992;27;20270;-80
2023/03/03 06:25:00;;;;;;;5.82;3.95;;;;;;;3.62;100.00;94588.50;5143348;27;20264;-78
2023/03/03 06:27:28;;;;;;;9.20;3.90;;;;;;;3.73;100.00;94593.44;5129684;27;20213;-78
2023/03/03 06:29:55;;;;;;;7.85;4.00;;;;;;;3.62;100.00;94591.19;5143165;27;20264;-79
2023/03/03 06:32:22;;;;;;;6.82;3.85;;;;;;;3.61;100.00;94592.25;5139848;27;20249;-78
2023/03/03 06:34:48;;;;;;;8.93;4.78;;;;;;;3.55;100.00;94591.53;5138946;27;20733;-78
2023/03/03 06:37:18;;;;;;;8.95;3.70;;;;;;;3.51;100.00;94591.28;5138410;27;20224;-78
2023/03/03 06:39:45;;;;;;;12.77;6.43;;;;;;;3.56;100.00;94583.19;5142154;27;20196;-78
2023/03/03 06:42:11;;;;;;;10.25;5.53;;;;;;;3.68;100.00;94590.06;5140329;27;20228;-79
2023/03/03 06:44:40;;;;;;;11.98;5.72;;;;;;;3.78;100.00;94592.59;5135702;27;20264;-77
2023/03/03 06:47:07;;;;;;;9.68;5.28;;;;;;;3.80;100.00;94587.75;5138265;27;20205;-77
2023/03/03 06:49:33;;;;;;;10.27;5.90;;;;;;;3.95;100.00;94587.59;5142979;27;20220;-77
2023/03/03 06:52:10;;;;;;;14.35;5.57;;;;;;;4.11;100.00;94593.53;5140751;27;20607;-77
2023/03/03 06:54:36;;;;;;;9.80;5.22;;;;;;;4.05;100.00;94587.44;5135538;27;20559;-76
2023/03/03 06:57:15;;;;;;;8.10;4.13;;;;;;;3.96;100.00;94591.88;5136336;27;20200;-76
2023/03/03 06:59:43;;;;;;;10.63;4.60;;;;;;;3.99;100.00;94593.16;5136600;27;20241;-78
2023/03/03 07:02:15;;;;;;;9.73;5.18;;;;;;;4.22;100.00;94595.81;5147710;27;20256;-76
2023/03/03 07:04:42;;;;;;;9.00;5.15;;;;;;;4.14;100.00;94598.31;5138207;27;20204;-78
2023/03/03 07:07:16;;;;;;;9.20;4.70;;;;;;;4.17;100.00;94598.56;5132660;27;20197;-76
2023/03/03 07:09:45;;;;;;;8.32;4.32;;;;;;;4.05;100.00;94594.69;5143551;27;20200;-76
2023/03/03 07:12:15;;;;;;;7.32;4.50;;;;;;;4.21;100.00;94599.56;5139763;27;20631;-75
2023/03/03 07:14:45;;;;;;;8.15;5.00;;;;;;;4.47;100.00;94597.34;5151102;27;20220;-77
2023/03/03 07:17:16;;;;;;;8.43;4.45;;;;;;;4.45;99.38;94606.75;5139574;27;20196;-76
2023/03/03 07:19:43;;;;;;;6.93;3.75;;;;;;;4.46;99.66;94600.31;5140429;27;20372;-76
2023/03/03 07:22:15;;;;;;;7.53;4.50;;;;;;;4.41;100.00;94605.75;5146599;27;20277;-76
2023/03/03 07:24:43;;;;;;;9.68;4.30;;;;;;;4.29;98.43;94601.59;5146447;27;20299;-76
2023/03/03 07:27:13;;;;;;;7.95;4.15;;;;;;;4.44;99.76;94597.13;5132590;27;20201;-78
2023/03/03 07:29:41;;;;;;;10.63;6.13;;;;;;;4.31;99.20;94595.97;5134220;27;20193;-77
2023/03/03 07:32:22;;;;;;;7.97;4.40;;;;;;;4.44;99.01;94589.06;5144547;27;20224;-77
2023/03/03 07:34:51;;;;;;;10.80;5.28;;;;;;;4.34;98.80;94597.28;5135832;27;20224;-77
2023/03/03 07:37:27;;;;;;;11.55;5.25;;;;;;;4.45;98.57;94598.72;5142005;27;20486;-78
2023/03/03 07:39:54;;;;;;;6.43;3.97;;;;;;;4.56;99.18;94589.44;5145900;27;20316;-77
2023/03/03 07:42:23;;;;;;;8.80;4.35;;;;;;;4.85;99.76;94591.97;5144142;27;20693;-78
2023/03/03 07:44:52;;;;;;;9.45;5.30;;;;;;;4.90;98.92;94589.19;5152462;27;20276;-78
2023/03/03 07:47:24;;;;;;;7.97;4.85;;;;;;;4.93;97.60;94586.72;5151984;27;20268;-77
2023/03/03 07:49:52;;;;;;;5.70;3.30;;;;;;;4.74;96.40;94591.31;5145262;27;20274;-78
2023/03/03 07:52:31;;;;;;;7.68;4.30;;;;;;;4.86;97.13;94588.97;5146428;27;20252;-79
2023/03/03 07:55:00;;;;;;;10.85;5.05;;;;;;;5.20;97.78;94585.19;5140935;27;20634;-79
2023/03/03 07:57:35;;;;;;;9.68;5.15;;;;;;;5.14;96.85;94584.50;5152847;27;20245;-77
2023/03/03 08:00:24;;;;;;;7.63;4.30;;;;;;;5.07;95.10;94588.63;5142272;27;20295;-78
2023/03/03 08:02:58;;;;;;;10.95;4.05;;;;;;;5.00;94.06;94573.72;5131455;27;20201;-77
2023/03/03 08:05:36;;;;;;;8.82;4.63;;;;;;;5.22;92.99;94583.81;5134041;27;20184;-79
2023/03/03 08:08:16;;;;;;;11.07;4.75;;;;;;;5.43;94.98;94580.78;5143108;27;20197;-78
2023/03/03 08:10:47;;;;;;;7.78;4.50;;;;;;;5.78;95.06;94565.88;5151143;27;20211;-79
2023/03/03 08:13:19;;;;;;;8.45;3.95;;;;;;;6.24;95.13;94568.47;5139944;27;20312;-78
2023/03/03 08:15:48;;;;;;;10.90;5.13;;;;;;;6.35;94.17;94570.66;5145726;27;20236;-79
2023/03/03 08:18:29;;;;;;;7.95;4.78;;;;;;;6.39;91.04;94568.94;5131752;27;20733;-79
2023/03/03 08:20:58;;;;;;;8.90;4.57;;;;;;;6.42;90.15;94570.25;5152094;27;20941;-79
2023/03/03 08:23:25;;;;;;;7.28;3.65;;;;;;;6.14;89.63;94574.88;5138022;27;20771;-79
2023/03/03 08:25:53;;;;;;;2.53;1.98;;;;;;;5.87;90.52;94569.47;5142800;27;20224;-78
2023/03/03 08:28:21;;;;;;;8.10;4.95;;;;;;;5.46;92.09;94564.88;5134968;27;20197;-79
2023/03/03 08:30:49;;;;;;;10.77;4.50;;;;;;;5.62;93.71;94562.69;5141299;27;20196;-79
2023/03/03 08:33:16;;;;;;;9.00;4.35;;;;;;;5.36;95.60;94568.53;5149681;27;20208;-79
2023/03/03 08:35:45;;;;;;;11.52;5.15;;;;;;;5.33;97.37;94568.31;5140528;27;20598;-79
2023/03/03 08:38:13;;;;;;;6.90;4.00;;;;;;;5.32;96.05;94564.06;5145248;27;20261;-78
2023/03/03 08:40:40;;;;;;;9.70;5.05;;;;;;;5.43;94.75;94560.09;5143235;27;20284;-79
2023/03/03 08:43:07;;;;;;;7.85;5.03;;;;;;;5.58;93.82;94553.66;5138011;27;20212;-76
2023/03/03 08:45:35;;;;;;;11.20;5.82;;;;;;;6.03;96.02;94563.50;5151761;27;20275;-77
2023/03/03 08:48:01;;;;;;;8.88;4.90;;;;;;;6.16;93.54;94561.91;5137477;27;20229;-78
2023/03/03 08:50:28;;;;;;;9.30;4.93;;;;;;;6.35;94.41;94559.88;5138131;27;20201;-77
2023/03/03 08:52:57;;;;;;;11.98;6.25;;;;;;;6.21;92.08;94555.63;5144612;27;20663;-79
2023/03/03 08:55:23;;;;;;;11.35;5.03;;;;;;;6.22;91.83;94560.72;5144286;27;20227;-79
2023/03/03 08:57:50;;;;;;;10.02;5.13;;;;;;;6.13;92.26;94562.53;5137526;27;20200;-77
2023/03/03 09:00:18;;;;;;;10.95;5.57;;;;;;;6.20;91.94;94557.50;5137810;27;20197;-78
2023/03/03 09:02:45;;;;;;;26.83;13.73;;;;;;;6.52;91.32;94561.16;5135664;27;20196;-78
2023/03/03 09:05:12;;;;;;;15.55;7.35;;;;;;;6.57;89.30;94564.50;5144681;27;20312;-77
2023/03/03 09:07:40;;;;;;;9.55;4.75;;;;;;;6.27;89.01;94557.91;5130527;27;20205;-77
2023/03/03 09:10:11;;;;;;;8.95;5.10;;;;;;;6.03;89.76;94562.72;5131156;27;20254;-79
2023/03/03 09:12:41;;;;;;;10.93;4.80;;;;;;;6.40;91.60;94562.47;5142644;27;20704;-77
2023/03/03 09:15:17;;;;;;;10.20;5.22;;;;;;;6.55;89.88;94557.84;5145368;27;20276;-78
2023/03/03 09:17:44;;;;;;;9.48;5.18;;;;;;;6.59;90.01;94553.44;5130378;27;20647;-79
2023/03/03 09:20:24;;;;;;;11.07;4.70;;;;;;;6.26;87.51;94556.31;5133501;27;21569;-81
2023/03/03 09:22:51;;;;;;;9.60;4.50;;;;;;;6.43;87.69;94550.28;5139500;27;20204;-80
2023/03/03 09:25:32;;;;;;;8.05;4.18;;;;;;;5.77;88.38;94558.91;5145114;27;20319;-81
2023/03/03 09:27:58;;;;;;;8.57;4.80;;;;;;;5.51;90.64;94566.66;5144891;27;20199;-79
2023/03/03 09:30:38;;;;;;;9.45;5.30;;;;;;;5.59;92.12;94563.31;5143566;27;20205;-81
2023/03/03 09:33:25;;;;;;;9.63;5.07;;;;;;;5.89;93.30;94560.03;5145090;27;20219;-79
2023/03/03 09:36:03;;;;;;;10.07;5.22;;;;;;;6.17;92.99;94558.13;5130858;27;20185;-80
2023/03/03 09:38:32;;;;;;;8.80;4.97;;;;;;;6.21;90.62;94563.69;5137898;27;20192;-80
2023/03/03 09:41:39;;;;;;;9.02;4.40;;;;;;;6.37;90.84;94556.91;5137616;27;20197;-79
2023/03/03 09:44:21;;;;;;;11.45;5.82;;;;;;;6.47;89.60;94558.56;5130712;27;20273;-80
2023/03/03 09:47:05;;;;;;;11.40;5.53;;;;;;;6.76;90.38;94558.97;5140151;27;20192;-81
2023/03/03 09:49:35;;;;;;;9.50;4.75;;;;;;;6.70;88.54;94554.78;5137581;27;20256;-81
2023/03/03 09:52:20;;;;;;;9.43;5.00;;;;;;;6.75;87.41;94565.44;5139269;27;21044;-80
2023/03/03 09:55:03;;;;;;;10.27;5.22;;;;;;;6.99;90.31;94563.25;5138739;27;20197;-82
2023/03/03 09:57:47;;;;;;;11.75;5.50;;;;;;;7.17;86.83;94558.78;5137616;27;20260;-79
2023/03/03 10:00:27;;;;;;;7.15;4.25;;;;;;;6.74;87.92;94561.16;5139174;27;20197;-80
2023/03/03 10:03:22;;;;;;;11.52;5.55;;;;;;;6.67;90.02;94555.41;5139287;27;20192;-83
2023/03/03 10:05:59;;;;;;;8.23;4.63;;;;;;;6.33;90.11;94556.69;5137853;27;20188;-82
2023/03/03 10:08:37;;;;;;;9.30;4.55;;;;;;;6.64;89.78;94550.63;5138230;27;20193;-81
2023/03/03 10:11:13;;;;;;;6.00;3.90;;;;;;;6.74;90.42;94553.09;5131433;27;20192;-83
2023/03/03 10:14:04;;;;;;;10.43;6.07;;;;;;;6.83;91.10;94553.97;5134768;27;20187;-81
2023/03/03 10:17:02;;;;;;;8.52;4.85;;;;;;;7.25;89.19;94541.88;5137403;27;20197;-85
2023/03/03 10:19:37;;;;;;;7.68;5.05;;;;;;;7.81;88.99;94549.25;5130739;27;20586;-80
2023/03/03 10:22:19;;;;;;;10.70;5.60;;;;;;;7.94;87.82;94544.06;5148825;27;20868;-80
2023/03/03 10:25:00;;;;;;;9.60;5.10;;;;;;;8.25;86.13;94534.00;5137740;27;20301;-80
2023/03/03 10:27:44;;;;;;;10.00;5.85;;;;;;;8.18;84.43;94537.16;5141965;27;20273;-80
2023/03/03 10:30:21;;;;;;;11.02;6.07;;;;;;;8.06;84.44;94530.81;5134265;27;20208;-84
2023/03/03 10:32:57;;;;;;;8.52;4.63;;;;;;;8.20;86.01;94531.44;5147119;27;20282;-81
2023/03/03 10:35:56;;;;;;;7.93;5.00;;;;;;;8.40;84.49;94530.88;5139479;27;20196;-81
2023/03/03 10:38:35;;;;;;;8.98;4.63;;;;;;;8.40;82.66;94520.09;5136463;27;20596;-85
2023/03/03 10:41:18;;;;;;;13.95;6.93;;;;;;;8.57;85.53;94521.22;5140585;27;20195;-81
2023/03/03 10:44:08;;;;;;;10.85;5.53;;;;;;;8.73;82.35;94523.13;5140012;27;20219;-79
2023/03/03 10:46:51;;;;;;;14.43;7.07;;;;;;;8.58;80.86;94522.81;5137122;27;20200;-80
2023/03/03 10:49:41;;;;;;;9.52;5.57;;;;;;;8.57;81.28;94516.59;5135920;27;20227;-81
2023/03/03 10:52:20;;;;;;;9.35;4.53;;;;;;;8.30;83.88;94509.56;5150838;27;20200;-79
2023/03/03 10:55:04;;;;;;;11.02;5.78;;;;;;;8.21;83.36;94516.84;5138151;27;20232;-80
2023/03/03 10:57:38;;;;;;;9.50;5.57;;;;;;;8.10;82.78;94518.25;5136513;27;20264;-81
2023/03/03 11:00:21;;;;;;;12.40;6.60;;;;;;;7.95;83.25;94507.91;5149843;27;20237;-81
2023/03/03 11:03:14;;;;;;;18.30;7.65;;;;;;;7.86;83.77;94510.59;5136295;27;20303;-82
2023/03/03 11:05:47;;;;;;;12.10;6.15;;;;;;;7.78;84.42;94509.47;5146370;27;20269;-81
2023/03/03 11:08:19;;;;;;;9.43;4.78;;;;;;;7.57;83.93;94513.81;5138399;27;20281;-80
2023/03/03 11:10:54;;;;;;;9.98;5.57;;;;;;;7.84;84.54;94502.81;5140693;27;20245;-81
2023/03/03 11:13:31;;;;;;;8.45;5.53;;;;;;;7.90;84.15;94508.06;5140547;27;20196;-79
2023/03/03 11:16:17;;;;;;;8.60;5.35;;;;;;;7.80;82.79;94499.13;5136887;27;20232;-81
2023/03/03 11:19:02;;;;;;;9.13;5.65;;;;;;;7.38;84.91;94507.88;5132464;27;20249;-81
2023/03/03 11:21:35;;;;;;;9.10;5.28;;;;;;;9.13;99.63;94480.47;5141948;27;20324;-77
2023/03/03 11:24:30;;;;;;;11.52;6.95;;;;;;;8.11;86.92;94485.56;5141862;27;20737;-79
2023/03/03 11:27:22;;;;;;;12.93;6.63;;;;;;;7.50;87.11;94497.31;5141872;27;20598;-79
2023/03/03 11:30:02;;;;;;;10.88;6.15;;;;;;;6.99;88.06;94487.84;5142518;27;20229;-80
2023/03/03 11:32:41;;;;;;;12.35;6.80;;;;;;;7.06;88.91;94499.00;5139766;27;20237;-78
2023/03/03 11:35:22;;;;;;;12.18;6.65;;;;;;;7.09;88.39;94494.91;5135692;27;20603;-78
2023/03/03 11:37:57;;;;;;;13.77;7.50;;;;;;;7.17;87.91;94491.44;5147226;27;20192;-78
2023/03/03 11:40:27;;;;;;;19.17;7.82;;;;;;;7.03;88.23;94494.22;5138374;27;20188;-77
2023/03/03 11:43:03;;;;;;;16.08;8.20;;;;;;;6.93;88.60;94482.91;5131755;27;20197;-77
2023/03/03 11:45:35;;;;;;;13.38;7.47;;;;;;;7.08;89.00;94480.63;5128783;28;20213;-77
2023/03/03 11:48:11;;;;;;;15.90;8.15;;;;;;;6.99;89.47;94487.84;5148457;27;20220;-79
2023/03/03 11:50:46;;;;;;;10.27;6.25;;;;;;;6.77;90.79;94485.19;5135890;27;20193;-79
2023/03/03 11:53:27;;;;;;;12.23;7.05;;;;;;;6.86;90.29;94477.94;5140498;27;20181;-78
2023/03/03 11:55:59;;;;;;;12.18;6.55;;;;;;;6.77;90.70;94474.41;5146345;27;20555;-78